Time;durP1;ratioP1;P1;durP2;ratioP2;P2;SDS_P1;SDS_P2;PMS_P1;PMS_P2;Temp;Humidity;BMP_temperature;BMP_pressure;BME280_temperature;BME280_humidity;BME280_pressure;Samples;Min_cycle;Max_cycle;Signal;HPM_P1;HPM_P2
2023/04/10 00:01:02;;;;;;;10.07;5.82;;;;;;;8.97;60.26;99599.88;4946955;28;20042;-87
2023/04/10 00:03:27;;;;;;;13.40;5.85;;;;;;;8.93;60.60;99601.44;4963416;28;20038;-88
2023/04/10 00:05:53;;;;;;;11.63;5.60;;;;;;;8.93;60.55;99603.31;4979871;28;20050;-87
2023/04/10 00:08:22;;;;;;;8.23;5.43;;;;;;;8.94;60.46;99608.44;4963053;28;20065;-88
2023/04/10 00:10:48;;;;;;;8.88;5.00;;;;;;;8.80;60.66;99604.50;4962737;28;20042;-87
2023/04/10 00:13:14;;;;;;;8.23;5.93;;;;;;;8.65;61.15;99595.22;4947146;28;20093;-87
2023/04/10 00:15:40;;;;;;;8.65;5.28;;;;;;;8.62;61.61;99603.78;4962576;28;20088;-87
2023/04/10 00:18:05;;;;;;;8.00;4.18;;;;;;;8.48;62.10;99592.59;4946915;28;20038;-87
2023/04/10 00:20:31;;;;;;;6.97;4.47;;;;;;;8.45;62.06;99592.28;4962237;28;20428;-87
2023/04/10 00:22:56;;;;;;;7.13;3.90;;;;;;;8.35;61.82;99603.66;4945736;28;20050;-88
2023/04/10 00:25:22;;;;;;;7.05;4.18;;;;;;;8.21;61.53;99599.72;4962654;28;20516;-87
2023/04/10 00:27:48;;;;;;;4.30;3.22;;;;;;;8.17;61.75;99595.91;4947907;28;20100;-87
2023/04/10 00:30:13;;;;;;;5.97;3.92;;;;;;;8.09;61.70;99584.53;4947103;28;20124;-87
2023/04/10 00:32:39;;;;;;;5.25;3.63;;;;;;;8.03;62.29;99588.22;4963879;28;20030;-87
2023/04/10 00:35:05;;;;;;;6.55;4.43;;;;;;;8.09;62.28;99591.75;4947723;28;20038;-88
2023/04/10 00:37:31;;;;;;;5.88;3.75;;;;;;;8.03;62.36;99580.16;4947720;28;20033;-87
2023/04/10 00:39:56;;;;;;;7.75;4.45;;;;;;;8.12;62.30;99590.47;4947505;28;20041;-87
2023/04/10 00:42:22;;;;;;;7.55;4.68;;;;;;;8.03;62.17;99576.66;4945850;28;20031;-87
2023/04/10 00:44:47;;;;;;;6.60;3.95;;;;;;;8.04;62.94;99586.34;4946911;28;20039;-87
2023/04/10 00:47:14;;;;;;;10.20;4.53;;;;;;;8.05;62.90;99585.25;4947358;28;20038;-87
2023/04/10 00:49:40;;;;;;;8.30;3.80;;;;;;;7.94;62.96;99578.16;4946767;28;20579;-87
2023/04/10 00:52:06;;;;;;;7.18;4.82;;;;;;;7.94;63.44;99580.81;4943886;28;20038;-87
2023/04/10 00:54:31;;;;;;;6.80;4.65;;;;;;;7.88;63.98;99582.59;4961718;28;20053;-87
2023/04/10 00:56:57;;;;;;;6.60;4.22;;;;;;;7.81;63.99;99585.47;4961594;28;20050;-87
2023/04/10 00:59:23;;;;;;;8.10;4.47;;;;;;;7.73;63.70;99583.19;4962640;28;20069;-87
2023/04/10 01:01:48;;;;;;;7.43;4.75;;;;;;;7.55;64.47;99564.69;4957921;28;20117;-87
2023/04/10 01:04:15;;;;;;;7.07;4.40;;;;;;;7.55;63.91;99565.47;4946863;28;20042;-88
2023/04/10 01:07:17;;;;;;;7.10;4.80;;;;;;;7.53;64.31;99574.81;4946766;28;20397;-88
2023/04/10 01:10:11;;;;;;;7.53;4.75;;;;;;;7.53;63.82;99580.19;4948579;28;20046;-87
2023/04/10 01:12:55;;;;;;;7.30;4.78;;;;;;;7.50;63.55;99578.81;4994985;28;20354;-88
2023/04/10 01:15:22;;;;;;;7.45;4.43;;;;;;;7.34;63.04;99564.34;4975517;28;20045;-87
2023/04/10 01:17:47;;;;;;;7.47;4.70;;;;;;;7.62;62.41;99581.41;4951361;28;20047;-87
2023/04/10 01:20:23;;;;;;;6.97;4.15;;;;;;;7.69;61.77;99574.00;4978558;28;20154;-87
2023/04/10 01:23:07;;;;;;;7.95;5.28;;;;;;;7.77;62.15;99583.53;4927665;28;20050;-87
2023/04/10 01:25:40;;;;;;;9.07;5.65;;;;;;;7.78;62.20;99585.97;4982369;28;20030;-87
2023/04/10 01:28:17;;;;;;;9.63;5.82;;;;;;;7.79;62.09;99576.84;4961882;28;20038;-87
2023/04/10 01:30:43;;;;;;;8.32;5.78;;;;;;;7.87;62.09;99581.81;4976424;28;20034;-87
2023/04/10 01:33:11;;;;;;;8.15;5.45;;;;;;;7.85;62.34;99581.25;4946048;28;20057;-88
2023/04/10 01:35:36;;;;;;;9.80;6.13;;;;;;;7.85;62.21;99575.88;4948546;28;20053;-87
2023/04/10 01:38:02;;;;;;;10.23;5.57;;;;;;;7.72;62.47;99575.38;4949377;28;20034;-88
2023/04/10 01:40:27;;;;;;;7.28;4.85;;;;;;;7.57;62.94;99579.44;4949491;28;20038;-87
2023/04/10 01:42:54;;;;;;;7.13;4.57;;;;;;;7.49;63.34;99583.38;4950545;28;20100;-87
2023/04/10 01:45:22;;;;;;;7.22;4.15;;;;;;;7.35;64.02;99565.19;4949864;28;20042;-87
2023/04/10 01:47:48;;;;;;;5.57;4.43;;;;;;;7.36;63.66;99572.13;4950107;28;20065;-87
2023/04/10 01:50:13;;;;;;;7.53;4.60;;;;;;;7.25;64.31;99565.81;4949350;28;20027;-88
2023/04/10 01:52:39;;;;;;;7.90;4.78;;;;;;;7.28;64.21;99582.22;4948635;28;20026;-87
2023/04/10 01:55:05;;;;;;;6.65;3.83;;;;;;;7.19;64.28;99577.47;4950347;28;20061;-87
2023/04/10 01:57:30;;;;;;;7.30;4.78;;;;;;;7.06;64.35;99576.72;4949451;28;20435;-87
2023/04/10 01:59:57;;;;;;;7.60;4.65;;;;;;;7.04;63.73;99576.16;4965772;28;20069;-87
2023/04/10 02:02:22;;;;;;;8.10;4.60;;;;;;;6.93;64.14;99566.31;4949565;28;20046;-87
2023/04/10 02:04:50;;;;;;;7.50;4.93;;;;;;;6.84;64.93;99578.44;4950649;28;20501;-87
2023/04/10 02:07:19;;;;;;;7.68;5.30;;;;;;;6.72;65.17;99569.66;4963897;28;20034;-87
2023/04/10 02:10:12;;;;;;;7.90;5.03;;;;;;;6.71;65.96;99581.41;4949227;28;20053;-87
2023/04/10 02:12:41;;;;;;;8.95;5.05;;;;;;;6.64;65.77;99570.81;4949914;28;20125;-87
2023/04/10 02:15:07;;;;;;;7.60;4.78;;;;;;;6.64;65.80;99581.53;4964261;28;20038;-87
2023/04/10 02:17:33;;;;;;;9.32;4.68;;;;;;;6.60;66.15;99585.72;4949240;28;20181;-86
2023/04/10 02:19:59;;;;;;;7.15;4.78;;;;;;;6.61;65.96;99582.00;4949414;28;20115;-87
2023/04/10 02:22:26;;;;;;;7.40;4.80;;;;;;;6.65;66.19;99583.97;4965441;28;20057;-87
2023/04/10 02:24:52;;;;;;;7.93;5.05;;;;;;;6.53;66.56;99564.47;4949137;28;20022;-86
2023/04/10 02:27:29;;;;;;;7.60;5.28;;;;;;;6.47;67.31;99565.41;4949006;28;20050;-87
2023/04/10 02:29:55;;;;;;;8.32;4.72;;;;;;;6.48;67.05;99567.84;4965454;28;20069;-86
2023/04/10 02:32:21;;;;;;;9.60;5.13;;;;;;;6.53;66.59;99572.50;4948626;28;20034;-87
2023/04/10 02:34:46;;;;;;;9.48;5.18;;;;;;;6.48;66.65;99575.88;4948297;28;20108;-87
2023/04/10 02:37:12;;;;;;;7.28;4.82;;;;;;;6.44;66.45;99572.06;4948256;28;20045;-87
2023/04/10 02:39:38;;;;;;;10.85;5.35;;;;;;;6.34;67.07;99571.03;4948749;28;20053;-87
2023/04/10 02:42:03;;;;;;;8.55;5.57;;;;;;;6.47;67.21;99584.13;4948586;28;20432;-86
2023/04/10 02:44:29;;;;;;;7.43;5.28;;;;;;;6.41;67.29;99585.06;4964231;28;20035;-85
2023/04/10 02:46:54;;;;;;;10.85;6.03;;;;;;;6.36;67.22;99576.97;4947580;28;20465;-87
2023/04/10 02:49:20;;;;;;;9.50;6.05;;;;;;;6.22;67.45;99557.69;4963650;28;20030;-86
2023/04/10 02:51:45;;;;;;;10.10;5.60;;;;;;;6.34;67.35;99571.84;4964751;28;20046;-87
2023/04/10 02:54:10;;;;;;;7.63;5.20;;;;;;;6.27;67.18;99568.50;4948635;28;20030;-87
2023/04/10 02:56:36;;;;;;;10.55;6.00;;;;;;;6.21;67.42;99575.59;4947990;28;20061;-86
2023/04/10 02:59:02;;;;;;;10.10;5.45;;;;;;;6.30;67.99;99592.06;4948206;28;20039;-86
2023/04/10 03:01:27;;;;;;;9.32;5.75;;;;;;;6.24;67.67;99587.66;4949290;28;20124;-86
2023/04/10 03:03:53;;;;;;;10.52;5.70;;;;;;;6.16;68.03;99575.47;4947876;28;20109;-86
2023/04/10 03:06:18;;;;;;;9.50;6.40;;;;;;;6.10;68.26;99568.41;4948100;28;20038;-85
2023/04/10 03:08:44;;;;;;;9.40;6.03;;;;;;;6.16;67.95;99582.69;4963778;28;20026;-85
2023/04/10 03:11:09;;;;;;;10.82;5.88;;;;;;;6.10;68.08;99589.78;4953756;28;20037;-85
2023/04/10 03:13:35;;;;;;;9.85;5.78;;;;;;;6.06;68.52;99580.63;4948438;28;20030;-86
2023/04/10 03:16:01;;;;;;;8.88;5.78;;;;;;;6.04;68.06;99580.03;4946644;28;20038;-86
2023/04/10 03:18:30;;;;;;;9.52;5.97;;;;;;;6.18;68.36;99602.78;4966180;28;20412;-92
2023/04/10 03:20:56;;;;;;;11.88;6.88;;;;;;;6.07;68.32;99595.59;4950735;28;20485;-92
2023/04/10 03:23:21;;;;;;;12.23;7.15;;;;;;;6.11;68.22;99593.28;4951010;28;20042;-92
2023/04/10 03:25:53;;;;;;;11.88;6.10;;;;;;;6.00;69.23;99598.38;4949083;28;20061;-91
2023/04/10 03:28:19;;;;;;;;;;;;;;;5.99;69.41;99596.75;4950618;28;20046;-91
2023/04/10 03:30:44;;;;;;;13.65;6.68;;;;;;;5.90;68.71;99591.97;4981850;28;19972;-93
2023/04/10 03:33:10;;;;;;;15.30;6.07;;;;;;;5.80;68.95;99592.53;4949165;28;20034;-93
2023/04/10 03:35:36;;;;;;;10.02;5.60;;;;;;;5.79;68.64;99594.41;4955729;28;20038;-92
2023/04/10 03:38:01;;;;;;;12.43;6.28;;;;;;;5.71;69.24;99597.41;4969508;28;20044;-93
2023/04/10 03:40:26;;;;;;;10.57;6.93;;;;;;;5.74;69.33;99607.63;4967606;28;20044;-92
2023/04/10 03:42:52;;;;;;;12.68;5.97;;;;;;;5.67;69.55;99602.41;4949253;28;20082;-92
2023/04/10 03:45:17;;;;;;;7.63;4.95;;;;;;;5.82;69.33;99604.63;4950324;28;20041;-93
2023/04/10 03:47:43;;;;;;;13.48;6.32;;;;;;;5.82;68.89;99601.94;4956348;28;20113;-93
2023/04/10 03:50:09;;;;;;;12.02;7.72;;;;;;;5.77;69.29;99609.00;4951540;28;20030;-93
2023/04/10 03:52:34;;;;;;;10.52;6.53;;;;;;;5.71;69.59;99593.91;4950441;28;20038;-91
2023/04/10 03:55:00;;;;;;;9.20;6.03;;;;;;;5.70;69.39;99597.63;4950721;28;20037;-92
2023/04/10 03:57:25;;;;;;;12.05;7.00;;;;;;;5.70;69.52;99597.63;4957606;28;20042;-93
2023/04/10 03:59:51;;;;;;;11.48;6.53;;;;;;;5.84;70.33;99612.41;4958125;28;20495;-91
2023/04/10 04:02:17;;;;;;;19.05;7.47;;;;;;;5.86;69.24;99597.75;4985499;28;20516;-92
2023/04/10 04:04:42;;;;;;;12.40;6.60;;;;;;;5.73;69.33;99600.66;4958148;28;20096;-85
2023/04/10 04:07:09;;;;;;;11.07;7.15;;;;;;;5.74;70.17;99612.97;4963751;28;20053;-87
2023/04/10 04:09:34;;;;;;;11.43;6.90;;;;;;;5.87;69.04;99610.09;4948391;28;20045;-88
2023/04/10 04:12:00;;;;;;;10.35;6.65;;;;;;;5.90;69.08;99611.47;4950408;28;20042;-87
2023/04/10 04:14:25;;;;;;;11.38;6.97;;;;;;;5.96;69.08;99604.44;4951284;28;20036;-87
2023/04/10 04:16:51;;;;;;;16.90;8.25;;;;;;;5.90;69.20;99602.66;4948476;28;20045;-88
2023/04/10 04:19:16;;;;;;;12.95;7.85;;;;;;;5.90;69.47;99618.69;4949346;28;20042;-94
2023/04/10 04:21:42;;;;;;;125.18;16.65;;;;;;;5.73;69.41;99610.53;4950459;28;20096;-92
2023/04/10 04:27:29;;;;;;;9.43;6.60;;;;;;;5.91;69.54;99606.94;4983692;28;20081;-95
2023/04/10 04:29:55;;;;;;;13.90;7.47;;;;;;;5.93;69.53;99607.53;4951967;28;20026;-94
2023/04/10 04:32:20;;;;;;;9.65;6.30;;;;;;;6.01;69.50;99612.56;4952903;28;20049;-93
2023/04/10 04:34:46;;;;;;;11.52;6.63;;;;;;;5.91;69.59;99613.09;4970565;28;20418;-93
2023/04/10 04:37:11;;;;;;;13.02;6.57;;;;;;;6.05;68.98;99614.53;4950752;28;20038;-94
2023/04/10 04:39:37;;;;;;;13.05;6.88;;;;;;;6.11;68.92;99615.47;4953833;28;20042;-94
2023/04/10 04:42:02;;;;;;;12.90;6.47;;;;;;;6.24;68.51;99636.59;4956324;28;20136;-94
2023/04/10 04:44:28;;;;;;;12.15;7.22;;;;;;;6.13;68.56;99609.91;4972527;28;20034;-95
2023/04/10 04:46:53;;;;;;;12.60;7.57;;;;;;;6.20;68.42;99618.59;4972551;28;20037;-94
2023/04/10 04:49:20;;;;;;;14.15;6.85;;;;;;;6.33;67.82;99628.22;4976209;28;20042;-95
2023/04/10 04:51:46;;;;;;;12.30;7.65;;;;;;;6.24;68.84;99609.88;4990607;28;20037;-93
2023/04/10 04:54:17;;;;;;;10.55;6.57;;;;;;;6.43;67.87;99625.78;4975214;28;20053;-96
2023/04/10 04:56:43;;;;;;;10.63;6.70;;;;;;;6.31;67.36;99608.94;5001941;28;20050;-95
2023/04/10 04:59:08;;;;;;;11.98;7.55;;;;;;;6.41;67.85;99630.53;4974033;28;20049;-95
2023/04/10 05:01:52;;;;;;;11.98;7.57;;;;;;;6.39;66.98;99624.63;4972000;28;20034;-95
2023/04/10 05:05:00;;;;;;;10.82;6.93;;;;;;;6.77;66.27;99639.34;4974185;28;20050;-96
2023/04/10 05:07:57;;;;;;;19.83;9.40;;;;;;;6.66;66.90;99639.13;5006354;28;20022;-96
2023/04/10 05:10:24;;;;;;;14.95;7.72;;;;;;;6.53;66.54;99593.09;5026711;28;20021;-94
2023/04/10 05:12:50;;;;;;;12.65;7.57;;;;;;;6.86;66.30;99608.47;4979362;28;20041;-95
2023/04/10 05:15:31;;;;;;;11.25;7.55;;;;;;;6.93;65.25;99613.66;4994688;28;20034;-93
2023/04/10 05:17:57;;;;;;;16.42;8.45;;;;;;;6.89;65.69;99624.06;4985204;28;20081;-95
2023/04/10 05:20:22;;;;;;;13.48;7.85;;;;;;;7.04;65.46;99621.66;4958640;28;20038;-87
2023/04/10 05:22:48;;;;;;;11.25;7.13;;;;;;;7.16;64.96;99615.44;4959675;28;20037;-87
2023/04/10 05:25:14;;;;;;;11.70;7.60;;;;;;;7.26;64.67;99629.00;4976549;28;20042;-88
2023/04/10 05:27:39;;;;;;;13.93;7.72;;;;;;;7.20;65.46;99643.38;4962273;28;20099;-89
2023/04/10 05:30:06;;;;;;;11.57;7.40;;;;;;;7.37;64.62;99636.19;4958548;28;20471;-88
2023/04/10 05:32:31;;;;;;;27.75;8.70;;;;;;;7.44;64.60;99634.16;4976209;28;20033;-86
2023/04/10 05:34:57;;;;;;;14.75;8.18;;;;;;;7.61;64.34;99636.06;4958000;28;20394;-87
2023/04/10 05:37:22;;;;;;;16.25;9.07;;;;;;;7.59;64.03;99635.47;4960179;28;20042;-87
2023/04/10 05:39:48;;;;;;;16.15;8.30;;;;;;;7.55;63.78;99631.66;4961869;28;20038;-85
2023/04/10 05:42:13;;;;;;;14.30;8.63;;;;;;;7.39;64.34;99619.88;4962470;28;20534;-86
2023/04/10 05:44:39;;;;;;;14.90;8.23;;;;;;;7.24;64.94;99629.28;4961585;28;20042;-88
2023/04/10 05:47:04;;;;;;;15.95;7.80;;;;;;;7.09;65.54;99627.09;4959566;28;20038;-90
2023/04/10 05:49:37;;;;;;;14.23;8.02;;;;;;;7.40;65.47;99640.25;4966936;28;20045;-90
2023/04/10 05:52:02;;;;;;;59.53;29.20;;;;;;;7.29;65.86;99621.31;4972373;28;20042;-89
2023/04/10 05:54:28;;;;;;;15.70;9.00;;;;;;;7.16;66.22;99604.72;4959357;28;20042;-90
2023/04/10 05:56:55;;;;;;;37.40;21.05;;;;;;;7.46;65.40;99612.50;4957860;28;20054;-88
2023/04/10 05:59:20;;;;;;;20.15;8.20;;;;;;;7.58;64.57;99618.59;4971987;28;20511;-85
2023/04/10 06:01:47;;;;;;;15.23;8.27;;;;;;;7.96;63.54;99627.78;4956048;28;20057;-86
2023/04/10 06:04:13;;;;;;;18.13;9.05;;;;;;;8.20;63.49;99636.47;4956241;28;20043;-89
2023/04/10 06:24:57;;;;;;;24.13;8.68;;;;;;;9.28;60.11;99621.69;5008043;28;20038;-95
2023/04/10 06:27:23;;;;;;;18.40;9.73;;;;;;;9.57;59.75;99630.28;4976387;28;20045;-92
2023/04/10 06:29:48;;;;;;;15.90;9.05;;;;;;;9.80;59.14;99628.34;4974292;28;20060;-94
2023/04/10 06:32:19;;;;;;;14.52;9.13;;;;;;;9.90;58.18;99612.28;4991741;28;20089;-92
2023/04/10 06:34:46;;;;;;;20.25;8.77;;;;;;;10.01;57.58;99605.88;4987310;28;20043;-92
2023/04/10 06:37:11;;;;;;;24.58;9.80;;;;;;;10.18;57.76;99616.50;4972581;28;20042;-91
2023/04/10 06:39:40;;;;;;;13.07;9.18;;;;;;;10.35;57.20;99610.16;4975120;28;20042;-94
2023/04/10 06:42:06;;;;;;;19.88;9.30;;;;;;;10.52;57.06;99624.22;4994335;28;20038;-94
2023/04/10 06:44:31;;;;;;;15.90;9.82;;;;;;;10.38;57.36;99605.06;4977284;28;20061;-94
2023/04/10 06:46:57;;;;;;;19.13;10.70;;;;;;;10.63;56.65;99609.75;4980333;28;20042;-96
2023/04/10 06:49:25;;;;;;;21.23;9.68;;;;;;;10.44;58.03;99627.44;4995227;28;20030;-96
2023/04/10 06:51:51;;;;;;;19.40;10.27;;;;;;;10.26;57.66;99599.06;4952003;29;20043;-94
2023/04/10 06:54:17;;;;;;;16.52;10.35;;;;;;;10.54;57.39;99603.25;4952576;29;20062;-94
2023/04/10 06:56:48;;;;;;;16.02;10.05;;;;;;;10.73;57.03;99609.00;4951160;29;20113;-93
2023/04/10 06:59:14;;;;;;;19.80;10.35;;;;;;;11.15;56.36;99639.59;4935769;29;20042;-93
2023/04/10 07:01:44;;;;;;;19.63;9.70;;;;;;;11.25;56.17;99620.75;4955233;29;20042;-94
2023/04/10 07:04:22;;;;;;;16.50;10.32;;;;;;;11.42;55.38;99637.47;4953587;29;20027;-96
2023/04/10 07:06:52;;;;;;;19.55;10.85;;;;;;;11.20;55.66;99618.03;4969201;29;20043;-94
2023/04/10 07:09:17;;;;;;;16.58;9.45;;;;;;;11.49;55.35;99632.63;4954509;29;20501;-94
2023/04/10 07:14:36;;;;;;;20.70;10.20;;;;;;;11.69;54.23;99621.03;4970734;28;20047;-95
2023/04/10 07:17:02;;;;;;;21.05;11.82;;;;;;;11.86;53.91;99618.06;4918367;29;20031;-96
2023/04/10 07:19:27;;;;;;;22.48;9.73;;;;;;;12.02;53.32;99628.91;4918903;29;20032;-95
2023/04/10 07:21:53;;;;;;;17.13;9.35;;;;;;;12.01;52.66;99617.28;4933212;28;20042;-93
2023/04/10 07:29:38;;;;;;;16.83;7.95;;;;;;;12.63;50.25;99633.34;5013202;28;20053;-95
2023/04/10 07:32:04;;;;;;;12.82;7.68;;;;;;;12.56;49.09;99617.44;4970836;28;20493;-96
2023/04/10 07:34:31;;;;;;;14.40;8.00;;;;;;;12.80;48.44;99614.91;4957312;28;20041;-95
2023/04/10 07:37:03;;;;;;;17.35;8.88;;;;;;;12.76;47.86;99589.50;4975588;28;20038;-96
2023/04/10 07:39:34;;;;;;;10.68;6.00;;;;;;;13.08;46.60;99616.13;4956724;28;20038;-92
2023/04/10 07:42:00;;;;;;;7.00;4.88;;;;;;;12.83;46.10;99586.53;4954719;28;20042;-92
2023/04/10 07:44:28;;;;;;;7.22;5.13;;;;;;;12.90;45.83;99603.25;4957471;28;20045;-96
2023/04/10 07:46:57;;;;;;;9.07;5.28;;;;;;;13.05;45.97;99602.34;4957865;28;20073;-96
2023/04/10 07:49:45;;;;;;;10.63;6.25;;;;;;;13.30;44.81;99620.34;4959411;28;20054;-94
2023/04/10 07:52:21;;;;;;;8.18;4.28;;;;;;;13.59;44.08;99615.00;4978951;28;20077;-92
2023/04/10 07:54:47;;;;;;;8.45;4.22;;;;;;;13.58;43.83;99593.66;4953608;28;20472;-94
2023/04/10 07:57:12;;;;;;;7.50;4.10;;;;;;;13.37;43.72;99601.91;4954607;28;20053;-91
2023/04/10 07:59:38;;;;;;;8.38;4.88;;;;;;;13.39;43.51;99590.81;4954383;28;20060;-95
2023/04/10 08:02:27;;;;;;;10.05;5.72;;;;;;;13.56;43.34;99615.56;4955960;28;20052;-92
2023/04/10 08:04:52;;;;;;;7.45;4.30;;;;;;;13.51;42.77;99580.47;4987247;28;20141;-93
2023/04/10 08:07:30;;;;;;;9.60;4.13;;;;;;;13.57;43.51;99609.06;4955380;28;20034;-95
2023/04/10 08:09:55;;;;;;;5.93;4.53;;;;;;;13.26;44.31;99584.09;4954597;28;20046;-94
2023/04/10 08:12:21;;;;;;;6.10;4.22;;;;;;;13.07;45.00;99590.19;4955346;28;20412;-91
2023/04/10 08:14:48;;;;;;;5.68;4.30;;;;;;;13.58;44.06;99601.75;4954132;28;20026;-92
2023/04/10 08:17:16;;;;;;;7.53;3.80;;;;;;;13.37;45.06;99607.31;4954020;28;20065;-96
2023/04/10 08:19:52;;;;;;;7.25;5.03;;;;;;;13.49;44.19;99583.44;4953204;28;20469;-93
2023/04/10 08:22:17;;;;;;;6.10;4.07;;;;;;;13.62;44.11;99583.88;4955294;28;20038;-94
2023/04/10 08:24:43;;;;;;;9.65;5.53;;;;;;;13.71;44.56;99596.50;4954755;28;20034;-92
2023/04/10 08:27:18;;;;;;;5.13;3.78;;;;;;;13.61;44.11;99579.53;4954437;28;20070;-96
2023/04/10 08:29:44;;;;;;;12.15;4.85;;;;;;;13.57;44.68;99583.91;4956209;28;20034;-94
2023/04/10 08:32:12;;;;;;;7.43;4.20;;;;;;;13.77;44.18;99578.31;4973329;28;20146;-96
2023/04/10 08:34:37;;;;;;;8.00;5.30;;;;;;;13.99;43.49;99577.84;4949840;28;20034;-91
2023/04/10 08:37:11;;;;;;;8.20;5.43;;;;;;;14.13;43.41;99580.69;4951609;28;20037;-90
2023/04/10 08:39:36;;;;;;;7.10;4.28;;;;;;;14.22;42.84;99568.13;4967095;28;20057;-91
2023/04/10 08:42:02;;;;;;;6.60;4.50;;;;;;;14.49;42.50;99583.81;4953121;28;20042;-91
2023/04/10 08:44:28;;;;;;;8.48;5.10;;;;;;;14.35;42.44;99561.22;4953484;28;20523;-91
2023/04/10 08:46:53;;;;;;;6.90;4.32;;;;;;;14.63;41.97;99581.25;4954155;28;20125;-89
2023/04/10 08:49:46;;;;;;;7.75;4.22;;;;;;;14.83;41.13;99587.50;4960150;28;20066;-91
2023/04/10 08:52:20;;;;;;;12.02;5.60;;;;;;;14.24;43.23;99543.47;4968913;28;20042;-91
2023/04/10 08:54:56;;;;;;;8.80;4.35;;;;;;;14.62;42.53;99538.97;4954698;28;20034;-92
2023/04/10 08:57:22;;;;;;;7.20;4.70;;;;;;;14.93;42.63;99552.91;4958265;28;20041;-93
2023/04/10 08:59:51;;;;;;;6.60;4.15;;;;;;;15.12;40.56;99525.78;4954846;28;20133;-90
2023/04/10 09:02:21;;;;;;;7.63;4.95;;;;;;;15.70;39.95;99549.00;4970934;28;20030;-90
2023/04/10 09:04:59;;;;;;;8.52;5.47;;;;;;;15.78;40.43;99547.53;4960225;28;20046;-89
2023/04/10 09:07:25;;;;;;;9.55;6.32;;;;;;;15.96;39.24;99543.94;4959361;28;20042;-88
2023/04/10 09:09:57;;;;;;;6.50;4.25;;;;;;;16.13;38.84;99534.41;4954465;28;20021;-91
2023/04/10 09:12:25;;;;;;;7.28;4.50;;;;;;;15.93;38.46;99505.72;4956426;28;20061;-90
2023/04/10 09:14:52;;;;;;;8.27;4.75;;;;;;;15.89;38.71;99502.00;4974752;28;20052;-89
2023/04/10 09:17:30;;;;;;;7.65;4.85;;;;;;;15.88;38.83;99503.13;4962119;28;20037;-88
2023/04/10 09:19:57;;;;;;;9.63;6.18;;;;;;;15.86;38.94;99527.03;4958598;28;20110;-89
2023/04/10 09:22:34;;;;;;;5.88;4.13;;;;;;;15.93;38.54;99525.53;4954890;28;20053;-88
2023/04/10 09:25:38;;;;;;;7.60;5.00;;;;;;;15.72;38.00;99489.00;4953006;28;20509;-89
2023/04/10 09:28:11;;;;;;;8.30;4.82;;;;;;;15.55;37.90;99508.56;4965096;28;20584;-89
2023/04/10 09:30:52;;;;;;;7.18;4.95;;;;;;;15.33;38.71;99482.84;4951899;28;20098;-88
2023/04/10 09:33:31;;;;;;;6.82;4.88;;;;;;;15.50;38.55;99492.34;4956442;28;20061;-91
2023/04/10 09:36:02;;;;;;;9.68;5.63;;;;;;;15.83;38.85;99490.41;4955544;28;20069;-93
2023/04/10 09:38:35;;;;;;;8.63;5.18;;;;;;;15.71;38.67;99501.75;4954044;28;20105;-90
2023/04/10 09:41:11;;;;;;;7.90;4.93;;;;;;;15.49;40.31;99491.53;4952503;28;20118;-89
2023/04/10 09:44:06;;;;;;;7.00;5.00;;;;;;;15.52;39.95;99465.72;4952908;28;20049;-90
2023/04/10 09:46:35;;;;;;;6.65;4.70;;;;;;;15.75;39.96;99477.56;4945828;29;20056;-88
2023/04/10 09:49:04;;;;;;;9.55;5.30;;;;;;;15.52;40.38;99471.97;4915080;28;20043;-89
2023/04/10 09:51:31;;;;;;;9.68;5.25;;;;;;;15.46;40.73;99477.75;4916574;29;20482;-90
2023/04/10 09:53:56;;;;;;;6.18;4.70;;;;;;;15.41;40.43;99446.09;4913760;29;20634;-87
2023/04/10 09:56:26;;;;;;;7.93;5.70;;;;;;;15.04;41.43;99466.78;4926425;29;20039;-89
2023/04/10 09:58:59;;;;;;;7.40;5.10;;;;;;;15.15;41.66;99467.44;4915626;28;20499;-88
2023/04/10 10:01:33;;;;;;;6.95;5.20;;;;;;;15.34;40.97;99484.47;4932468;29;20112;-90
2023/04/10 10:04:06;;;;;;;7.20;5.00;;;;;;;15.20;41.26;99453.00;4913421;29;20052;-87
2023/04/10 10:06:41;;;;;;;8.15;5.50;;;;;;;15.48;41.19;99480.97;4920513;29;20039;-88
2023/04/10 10:09:07;;;;;;;6.88;5.10;;;;;;;15.08;40.90;99440.69;4914989;29;20105;-88
2023/04/10 10:11:34;;;;;;;6.85;5.05;;;;;;;15.41;40.52;99472.44;4925961;29;20031;-88
2023/04/10 10:14:04;;;;;;;8.27;5.70;;;;;;;15.36;40.39;99459.78;4914144;29;20130;-86
2023/04/10 10:16:31;;;;;;;7.80;5.72;;;;;;;15.56;40.28;99470.28;4923131;28;20051;-87
2023/04/10 10:19:25;;;;;;;7.05;5.25;;;;;;;15.76;39.18;99462.88;4964868;28;20066;-88
2023/04/10 10:21:51;;;;;;;5.70;4.28;;;;;;;15.59;39.10;99439.00;4982050;28;20038;-90
2023/04/10 10:24:16;;;;;;;9.05;4.68;;;;;;;15.74;38.79;99446.88;4952237;28;20031;-87
2023/04/10 10:26:42;;;;;;;11.50;5.55;;;;;;;15.64;38.55;99429.94;4949150;28;20125;-86
2023/04/10 10:29:12;;;;;;;7.18;5.88;;;;;;;15.82;38.49;99436.44;4951266;28;20047;-87
2023/04/10 10:31:49;;;;;;;7.28;5.20;;;;;;;15.63;39.12;99444.66;4948851;28;20109;-86
2023/04/10 10:34:20;;;;;;;6.57;5.07;;;;;;;15.64;39.22;99411.75;4936571;28;20038;-87
2023/04/10 10:37:17;;;;;;;9.13;6.20;;;;;;;16.07;38.88;99419.63;4959128;28;20073;-89
2023/04/10 10:39:55;;;;;;;6.30;5.03;;;;;;;16.35;37.78;99444.00;4966833;28;20106;-87
2023/04/10 10:42:29;;;;;;;8.25;5.68;;;;;;;16.27;38.06;99440.13;4972155;28;20042;-86
2023/04/10 10:45:04;;;;;;;7.10;5.22;;;;;;;16.26;37.97;99433.06;4979340;28;20564;-87
2023/04/10 10:47:30;;;;;;;6.45;5.38;;;;;;;16.19;38.36;99419.09;4962667;28;20591;-86
2023/04/10 10:49:59;;;;;;;10.48;6.07;;;;;;;15.97;38.64;99392.66;4947177;28;20035;-87
2023/04/10 10:53:08;;;;;;;8.57;6.00;;;;;;;16.27;38.29;99434.69;4945645;28;20109;-87
2023/04/10 10:55:41;;;;;;;10.20;6.50;;;;;;;15.93;38.90;99402.53;4958906;28;20042;-88
2023/04/10 10:58:16;;;;;;;6.57;5.10;;;;;;;16.10;39.18;99410.03;4950373;28;20045;-88
2023/04/10 11:01:05;;;;;;;12.15;6.30;;;;;;;16.20;38.87;99417.97;4946644;28;20035;-88
2023/04/10 11:03:38;;;;;;;8.20;4.95;;;;;;;16.04;39.17;99386.81;4979342;28;20039;-93
2023/04/10 11:06:11;;;;;;;7.55;5.25;;;;;;;16.15;38.82;99399.09;4954318;28;20142;-87
2023/04/10 11:08:45;;;;;;;8.02;4.63;;;;;;;15.99;37.82;99420.31;4945664;28;20038;-87
2023/04/10 11:11:43;;;;;;;;;;;;;;;;;;;;;
2023/04/10 11:14:09;;;;;;;6.22;4.80;;;;;;;15.90;37.59;99416.72;4977984;28;20121;-87
2023/04/10 11:16:39;;;;;;;5.80;4.80;;;;;;;15.96;37.69;99426.38;4957205;28;20062;-86
2023/04/10 11:19:08;;;;;;;7.72;5.15;;;;;;;16.03;37.46;99406.94;4960557;28;20030;-88
2023/04/10 11:21:34;;;;;;;7.05;4.70;;;;;;;16.01;37.90;99409.97;4947221;28;20030;-86
2023/04/10 11:23:59;;;;;;;6.53;4.90;;;;;;;16.13;38.21;99418.41;4948729;28;20065;-88
2023/04/10 11:29:23;;;;;;;6.65;5.07;;;;;;;15.90;38.46;99381.44;4994814;28;20117;-89
2023/04/10 11:31:59;;;;;;;8.43;5.22;;;;;;;16.10;37.75;99404.63;4956872;28;20133;-88
2023/04/10 11:34:29;;;;;;;6.25;4.20;;;;;;;15.45;38.65;99368.41;4993733;28;20097;-88
2023/04/10 11:37:30;;;;;;;8.90;5.10;;;;;;;15.84;37.50;99378.00;4950864;28;20069;-89
2023/04/10 11:40:06;;;;;;;4.30;3.67;;;;;;;15.99;36.13;99370.66;4964811;28;20039;-88
2023/04/10 11:42:35;;;;;;;4.13;3.10;;;;;;;16.02;34.82;99373.56;4962988;28;20038;-89
2023/04/10 11:45:21;;;;;;;4.45;3.25;;;;;;;16.26;34.37;99380.66;4969819;28;20041;-93
2023/04/10 11:47:52;;;;;;;4.20;2.92;;;;;;;16.19;33.28;99362.06;4974769;28;20031;-88
2023/04/10 11:50:25;;;;;;;4.65;3.22;;;;;;;16.32;33.02;99347.63;4967468;28;20042;-90
2023/04/10 11:53:18;;;;;;;5.93;3.03;;;;;;;16.46;33.09;99365.81;4932051;29;20110;-90
2023/04/10 11:55:47;;;;;;;5.00;3.47;;;;;;;16.10;33.13;99342.97;4934673;28;20049;-89
2023/04/10 11:58:31;;;;;;;4.70;3.53;;;;;;;16.47;33.63;99364.66;4932545;29;20070;-90
2023/04/10 12:01:03;;;;;;;4.75;3.67;;;;;;;16.40;33.33;99348.81;4955818;28;20077;-89
2023/04/10 12:03:34;;;;;;;7.50;4.07;;;;;;;16.73;33.42;99362.97;4940723;29;20031;-87
2023/04/10 12:06:20;;;;;;;8.65;4.47;;;;;;;16.60;33.51;99336.66;4959240;28;20180;-88
2023/04/10 12:08:48;;;;;;;6.22;4.60;;;;;;;16.70;34.04;99335.56;4946098;28;20062;-88
2023/04/10 12:11:14;;;;;;;6.78;5.00;;;;;;;16.79;34.40;99333.72;4945477;29;20071;-89
2023/04/10 12:13:40;;;;;;;8.48;6.03;;;;;;;17.16;34.08;99340.69;4937070;29;20098;-86
2023/04/10 12:16:06;;;;;;;7.05;5.03;;;;;;;17.04;34.24;99343.19;4928895;29;20489;-88
2023/04/10 12:18:35;;;;;;;8.27;4.72;;;;;;;16.87;34.56;99324.84;4952343;28;20474;-88
2023/04/10 12:21:06;;;;;;;7.22;5.25;;;;;;;16.85;34.99;99312.66;4952408;28;20037;-88